Terminal Aerodrome Forecast
Issued by NWS Omaha/Valley, NE

Home | Current Version | Previous Version | Text Only | Print | Product List | Glossary On
Versions: 1 2 3 4 5 6 7 8 9 10 11 12 13 14 15 16 17 18 19 20 21 22 23 24 25 26 27 28 29 30 31 32 33 34 35 36 37 38 39 40 41 42 43 44 45 46 47 48 49 50
000
FTUS43 KOAX 202007 AAA
TAFOMA
TAF AMD
KOMA 202007Z 2020/2118 19006KT 3SM BR OVC008
      TEMPO 2020/2022 2SM BR OVC005
     FM210400 16008KT 4SM BR OVC009
      TEMPO 2106/2110 2SM BR OVC005
     FM211600 17011KT 5SM BR OVC012=

USA.gov is the U.S. government's official web portal to all federal, state and local government web resources and services.